createdAt,value
2017-11-30T00:01:15.666Z,80.31
2017-11-30T00:03:43.055Z,80.48
2017-11-30T00:06:10.468Z,80.64
2017-11-30T00:08:37.891Z,80.39
2017-11-30T00:11:05.349Z,80.12
2017-11-30T00:13:32.747Z,80.25
2017-11-30T00:16:00.132Z,80.83
2017-11-30T00:18:27.524Z,80.83
2017-11-30T00:20:54.909Z,80.68
2017-11-30T00:23:22.329Z,80.63
2017-11-30T00:25:49.721Z,80.82
2017-11-30T00:28:17.117Z,80.82
2017-11-30T00:30:44.502Z,81.02
2017-11-30T00:33:11.900Z,81.31
2017-11-30T00:35:39.283Z,81.84
2017-11-30T00:38:06.679Z,81.32
2017-11-30T00:40:34.101Z,81.50
2017-11-30T00:43:13.140Z,81.51
2017-11-30T00:45:40.528Z,81.91
2017-11-30T00:48:07.932Z,82.22
2017-11-30T00:50:35.324Z,81.76
2017-11-30T00:53:02.751Z,81.93
2017-11-30T00:55:30.140Z,81.67
2017-11-30T00:57:57.535Z,81.68
2017-11-30T01:00:24.955Z,81.98
2017-11-30T01:02:52.308Z,81.86
2017-11-30T01:05:19.696Z,83.39
2017-11-30T01:07:47.080Z,84.03
2017-11-30T01:10:14.472Z,83.55
2017-11-30T01:12:41.893Z,82.58
2017-11-30T01:15:09.345Z,82.54
2017-11-30T01:17:36.816Z,82.14
2017-11-30T01:20:04.204Z,82.98
2017-11-30T01:22:31.616Z,82.93
2017-11-30T01:24:59.018Z,83.91
2017-11-30T01:27:26.427Z,84.02
2017-11-30T01:29:53.880Z,84.39
2017-11-30T01:32:21.279Z,84.21
2017-11-30T01:34:48.677Z,84.21
2017-11-30T01:37:16.156Z,83.60
2017-11-30T01:39:43.547Z,83.75
2017-11-30T01:42:10.944Z,84.49
2017-11-30T01:44:38.415Z,85.12
2017-11-30T01:47:05.812Z,85.12
2017-11-30T01:49:33.195Z,84.66
2017-11-30T01:52:00.595Z,84.67
2017-11-30T01:57:18.560Z,84.17
2017-11-30T01:59:45.953Z,83.62
2017-11-30T02:02:13.380Z,83.51
2017-11-30T02:04:40.777Z,83.31
2017-11-30T02:07:08.169Z,83.12
2017-11-30T02:09:35.569Z,83.50
2017-11-30T02:12:02.967Z,83.13
2017-11-30T02:14:30.361Z,83.69
2017-11-30T02:16:57.780Z,84.17
2017-11-30T02:19:25.172Z,84.48
2017-11-30T02:21:52.574Z,83.75
2017-11-30T02:24:19.965Z,83.55
2017-11-30T02:26:47.368Z,83.48
2017-11-30T02:29:14.752Z,82.47
2017-11-30T02:31:42.156Z,82.23
2017-11-30T02:34:09.540Z,82.16
2017-11-30T02:36:36.941Z,82.16
2017-11-30T02:39:04.363Z,81.82
2017-11-30T02:41:31.832Z,81.63
2017-11-30T02:43:59.219Z,82.21
2017-11-30T02:46:26.632Z,82.54
2017-11-30T02:48:54.039Z,82.94
2017-11-30T02:51:21.437Z,82.50
2017-11-30T02:53:48.840Z,83.55
2017-11-30T02:56:16.261Z,83.76
2017-11-30T02:58:43.658Z,84.30
2017-11-30T03:01:11.086Z,84.18
2017-11-30T03:03:38.493Z,84.53
2017-11-30T03:06:05.889Z,85.12
2017-11-30T03:08:33.296Z,84.66
2017-11-30T03:11:00.794Z,85.36
2017-11-30T03:13:28.193Z,85.58
2017-11-30T03:15:55.592Z,85.62
2017-11-30T03:18:23.057Z,84.78
2017-11-30T03:20:50.439Z,84.18
2017-11-30T03:25:45.053Z,85.35
2017-11-30T03:28:12.451Z,85.16
2017-11-30T03:30:39.939Z,85.02
2017-11-30T03:33:07.336Z,85.08
2017-11-30T03:35:34.748Z,84.65
2017-11-30T03:38:02.199Z,84.39
2017-11-30T03:40:29.580Z,84.37
2017-11-30T03:42:56.987Z,84.47
2017-11-30T03:45:24.467Z,84.12
2017-11-30T03:47:51.870Z,84.03
2017-11-30T03:50:19.268Z,83.82
2017-11-30T03:52:46.719Z,84.02
2017-11-30T03:55:14.124Z,83.83
2017-11-30T03:57:41.508Z,83.95
2017-11-30T04:00:08.907Z,83.61
2017-11-30T04:02:36.291Z,83.51
2017-11-30T04:05:03.695Z,84.29
2017-11-30T04:07:31.156Z,83.74
2017-11-30T04:09:58.558Z,83.98
2017-11-30T04:12:25.971Z,84.47
2017-11-30T04:14:53.371Z,85.17
2017-11-30T04:17:20.775Z,84.82
2017-11-30T04:19:48.170Z,84.07
2017-11-30T04:22:15.555Z,83.92
2017-11-30T04:24:42.958Z,84.33
2017-11-30T04:29:48.804Z,83.51
2017-11-30T04:32:16.202Z,84.11
2017-11-30T04:34:43.600Z,84.12
2017-11-30T04:37:11.097Z,84.77
2017-11-30T04:39:38.554Z,84.97
2017-11-30T04:42:05.931Z,84.37
2017-11-30T04:44:33.328Z,83.99
2017-11-30T04:47:00.808Z,83.53
2017-11-30T04:49:28.207Z,83.48
2017-11-30T04:51:55.599Z,83.13
2017-11-30T04:54:22.999Z,82.57
2017-11-30T04:56:50.424Z,82.83
2017-11-30T04:59:17.815Z,83.48
2017-11-30T05:01:45.221Z,83.43
2017-11-30T05:04:12.687Z,83.16
2017-11-30T05:06:40.151Z,83.61
2017-11-30T05:09:07.540Z,83.92
2017-11-30T05:11:34.943Z,84.04
2017-11-30T05:14:02.340Z,84.57
2017-11-30T05:16:29.739Z,84.49
2017-11-30T05:18:57.232Z,83.53
2017-11-30T05:21:24.632Z,83.52
2017-11-30T05:23:52.028Z,83.63
2017-11-30T05:26:19.489Z,83.33
2017-11-30T05:28:46.891Z,83.71
2017-11-30T05:31:14.268Z,82.93
2017-11-30T05:33:41.656Z,82.80
2017-11-30T05:36:09.115Z,83.02
2017-11-30T05:38:36.509Z,83.15
2017-11-30T05:41:03.916Z,83.16
2017-11-30T05:43:31.391Z,83.40
2017-11-30T05:45:58.792Z,83.64
2017-11-30T05:48:26.185Z,84.01
2017-11-30T05:50:53.575Z,83.75
2017-11-30T05:53:21.025Z,83.44
2017-11-30T05:55:48.424Z,83.33
2017-11-30T05:58:15.819Z,83.19
2017-11-30T06:00:43.209Z,82.58
2017-11-30T06:03:10.599Z,82.58
2017-11-30T06:05:37.986Z,82.33
2017-11-30T06:08:05.392Z,81.81
2017-11-30T06:10:32.781Z,81.79
2017-11-30T06:13:00.167Z,81.99
2017-11-30T06:15:27.573Z,81.97
2017-11-30T06:17:54.970Z,82.18
2017-11-30T06:20:22.356Z,82.49
2017-11-30T06:22:49.774Z,82.26
2017-11-30T06:25:17.157Z,81.70
2017-11-30T06:27:44.555Z,81.69
2017-11-30T06:30:11.953Z,82.12
2017-11-30T06:32:39.348Z,82.15
2017-11-30T06:35:06.743Z,81.91
2017-11-30T06:37:34.213Z,82.20
2017-11-30T06:40:01.609Z,82.32
2017-11-30T06:42:29.024Z,82.18
2017-11-30T06:44:56.411Z,82.46
2017-11-30T06:47:23.811Z,82.32
2017-11-30T06:49:51.288Z,82.71
2017-11-30T06:52:18.744Z,82.61
2017-11-30T06:54:46.140Z,82.67
2017-11-30T06:57:13.523Z,83.21
2017-11-30T06:59:40.928Z,82.88
2017-11-30T07:02:08.371Z,82.65
2017-11-30T07:04:35.767Z,82.51
2017-11-30T07:07:03.172Z,82.29
2017-11-30T07:09:30.576Z,82.16
2017-11-30T07:11:57.991Z,82.06
2017-11-30T07:14:25.383Z,82.80
2017-11-30T07:16:52.800Z,82.77
2017-11-30T07:19:20.201Z,83.14
2017-11-30T07:21:47.592Z,83.20
2017-11-30T07:24:15.069Z,83.75
2017-11-30T07:26:42.443Z,83.54
2017-11-30T07:29:09.839Z,83.85
2017-11-30T07:31:37.332Z,84.88
2017-11-30T07:34:04.793Z,84.91
2017-11-30T07:36:32.183Z,84.89
2017-11-30T07:38:59.583Z,84.36
2017-11-30T07:41:26.968Z,84.30
2017-11-30T07:43:54.380Z,83.83
2017-11-30T07:46:21.786Z,84.18
2017-11-30T07:48:49.224Z,84.23
2017-11-30T07:51:16.624Z,84.44
2017-11-30T07:53:44.017Z,84.13
2017-11-30T07:56:11.484Z,84.28
2017-11-30T07:58:38.877Z,83.77
2017-11-30T08:01:06.294Z,83.33
2017-11-30T08:03:33.761Z,83.52
2017-11-30T08:06:01.156Z,83.36
2017-11-30T08:08:28.548Z,83.75
2017-11-30T08:10:55.944Z,83.47
2017-11-30T08:13:23.375Z,84.11
2017-11-30T08:15:50.777Z,84.08
2017-11-30T08:18:18.175Z,84.19
2017-11-30T08:20:45.584Z,84.15
2017-11-30T08:23:13.004Z,84.50
2017-11-30T08:25:40.402Z,84.29
2017-11-30T08:28:07.800Z,84.60
2017-11-30T08:30:35.279Z,84.55
2017-11-30T08:33:02.667Z,84.15
2017-11-30T08:35:30.064Z,84.69
2017-11-30T08:37:57.455Z,84.26
2017-11-30T08:40:24.871Z,84.03
2017-11-30T08:42:52.248Z,83.75
2017-11-30T08:45:19.635Z,83.69
2017-11-30T08:47:47.032Z,83.71
2017-11-30T08:50:14.415Z,82.85
2017-11-30T08:52:41.807Z,82.68
2017-11-30T08:55:09.213Z,82.91
2017-11-30T08:57:36.610Z,83.67
2017-11-30T09:00:04.028Z,84.66
2017-11-30T09:02:31.443Z,84.71
2017-11-30T09:04:58.919Z,84.18
2017-11-30T09:07:26.312Z,83.85
2017-11-30T09:09:53.721Z,83.74
2017-11-30T09:12:21.170Z,84.02
2017-11-30T09:14:48.562Z,83.85
2017-11-30T09:17:15.964Z,84.55
2017-11-30T09:19:43.352Z,84.13
2017-11-30T09:22:10.753Z,84.19
2017-11-30T09:24:38.142Z,83.94
2017-11-30T09:27:05.545Z,83.68
2017-11-30T09:29:32.989Z,83.89
2017-11-30T09:32:00.389Z,83.35
2017-11-30T09:34:27.779Z,83.33
2017-11-30T09:36:55.171Z,83.96
2017-11-30T09:39:22.557Z,83.82
2017-11-30T09:41:49.964Z,83.77
2017-11-30T09:44:17.351Z,83.93
2017-11-30T09:46:44.748Z,83.85
2017-11-30T09:49:12.155Z,83.98
2017-11-30T09:51:39.548Z,84.79
2017-11-30T09:54:06.950Z,85.36
2017-11-30T09:56:34.335Z,84.92
2017-11-30T09:59:01.740Z,84.18
2017-11-30T10:01:29.130Z,84.13
2017-11-30T10:03:56.524Z,84.16
2017-11-30T10:06:23.928Z,84.35
2017-11-30T10:08:51.333Z,84.36
2017-11-30T10:11:18.733Z,84.28
2017-11-30T10:13:46.151Z,83.83
2017-11-30T10:16:13.542Z,83.39
2017-11-30T10:18:40.941Z,83.27
2017-11-30T10:21:08.328Z,83.43
2017-11-30T10:23:35.787Z,83.66
2017-11-30T10:26:03.180Z,83.12
2017-11-30T10:28:30.580Z,82.65
2017-11-30T10:30:58.058Z,82.37
2017-11-30T10:33:25.504Z,82.48
2017-11-30T10:35:52.910Z,82.82
2017-11-30T10:38:20.321Z,82.45
2017-11-30T10:40:47.707Z,83.32
2017-11-30T10:43:15.128Z,82.86
2017-11-30T10:45:42.524Z,83.23
2017-11-30T10:48:09.919Z,82.92
2017-11-30T10:50:37.312Z,82.40
2017-11-30T10:53:04.703Z,83.01
2017-11-30T10:55:32.199Z,83.49
2017-11-30T10:57:59.599Z,83.46
2017-11-30T11:00:26.995Z,83.10
2017-11-30T11:02:54.383Z,82.72
2017-11-30T11:05:21.797Z,82.52
2017-11-30T11:07:49.180Z,82.77
2017-11-30T11:10:16.588Z,82.61
2017-11-30T11:12:43.989Z,82.71
2017-11-30T11:15:11.388Z,82.96
2017-11-30T11:17:38.780Z,83.71
2017-11-30T11:20:06.176Z,83.34
2017-11-30T11:22:33.564Z,83.02
2017-11-30T11:25:00.956Z,83.49
2017-11-30T11:27:28.352Z,83.22
2017-11-30T11:29:55.747Z,83.12
2017-11-30T11:32:23.148Z,82.32
2017-11-30T11:34:50.550Z,82.68
2017-11-30T11:37:17.943Z,81.69
2017-11-30T11:39:45.329Z,81.52
2017-11-30T11:42:12.748Z,81.16
2017-11-30T11:44:40.157Z,80.83
2017-11-30T11:47:07.558Z,80.46
2017-11-30T11:49:35.016Z,79.94
2017-11-30T11:52:02.472Z,79.24
2017-11-30T11:54:29.858Z,79.89
2017-11-30T11:56:57.280Z,80.69
2017-11-30T11:59:24.688Z,80.18
2017-11-30T12:01:52.103Z,79.96
2017-11-30T12:04:19.462Z,79.83
2017-11-30T12:06:46.868Z,79.81
2017-11-30T12:09:14.251Z,79.93
2017-11-30T12:11:41.652Z,79.91
2017-11-30T12:14:09.059Z,79.46
2017-11-30T12:16:36.460Z,80.43
2017-11-30T12:19:03.856Z,80.83
2017-11-30T12:21:31.323Z,81.35
2017-11-30T12:23:58.736Z,81.15
2017-11-30T12:26:26.366Z,80.75
2017-11-30T12:28:53.744Z,80.23
2017-11-30T12:31:21.140Z,80.51
2017-11-30T12:33:48.532Z,79.94
2017-11-30T12:36:15.941Z,79.99
2017-11-30T12:38:43.340Z,80.00
2017-11-30T12:41:10.741Z,79.52
2017-11-30T12:43:38.232Z,79.41
2017-11-30T12:46:05.616Z,78.80
2017-11-30T12:48:32.998Z,79.20
2017-11-30T12:51:00.404Z,79.71
2017-11-30T12:53:27.792Z,79.96
2017-11-30T12:55:55.212Z,79.41
2017-11-30T12:58:22.594Z,79.88
2017-11-30T13:00:50.042Z,80.00
2017-11-30T13:03:17.410Z,79.69
2017-11-30T13:05:44.798Z,80.43
2017-11-30T13:08:12.203Z,80.13
2017-11-30T13:10:39.647Z,79.84
2017-11-30T13:13:07.001Z,80.28
2017-11-30T13:15:34.474Z,79.65
2017-11-30T13:18:01.866Z,79.42
2017-11-30T13:20:29.258Z,80.18
2017-11-30T13:22:56.645Z,79.62
2017-11-30T13:25:24.033Z,79.36
2017-11-30T13:27:51.422Z,79.27
2017-11-30T13:30:18.866Z,79.00
2017-11-30T13:32:46.258Z,79.43
2017-11-30T13:35:13.639Z,78.65
2017-11-30T13:37:41.065Z,78.01
2017-11-30T13:40:08.495Z,78.04
2017-11-30T13:42:35.911Z,77.46
2017-11-30T13:45:03.342Z,78.03
2017-11-30T13:47:30.813Z,77.80
2017-11-30T13:49:58.210Z,77.69
2017-11-30T13:52:25.626Z,77.40
2017-11-30T13:54:53.008Z,77.34
2017-11-30T13:57:20.504Z,77.46
2017-11-30T13:59:47.946Z,76.92
2017-11-30T14:02:15.372Z,76.34
2017-11-30T14:04:42.790Z,76.48
2017-11-30T14:07:10.174Z,76.47
2017-11-30T14:09:37.562Z,77.43
2017-11-30T14:12:04.959Z,77.37
2017-11-30T14:14:32.443Z,76.97
2017-11-30T14:16:59.913Z,77.13
2017-11-30T14:19:27.299Z,76.90
2017-11-30T14:21:54.694Z,77.30
2017-11-30T14:24:22.182Z,76.70
2017-11-30T14:26:49.569Z,76.64
2017-11-30T14:29:16.995Z,76.25
2017-11-30T14:31:44.464Z,76.19
2017-11-30T14:34:11.899Z,75.73
2017-11-30T14:36:39.294Z,76.10
2017-11-30T14:39:06.689Z,75.16
2017-11-30T14:41:34.074Z,75.38
2017-11-30T14:44:01.526Z,75.17
2017-11-30T14:46:28.920Z,74.97
2017-11-30T14:48:56.329Z,75.41
2017-11-30T14:51:23.794Z,75.98
2017-11-30T14:53:51.190Z,76.54
2017-11-30T14:56:18.574Z,78.10
2017-11-30T14:58:45.966Z,78.88
2017-11-30T15:01:13.414Z,79.04
2017-11-30T15:03:40.811Z,78.69
2017-11-30T15:06:08.206Z,78.99
2017-11-30T15:08:35.625Z,79.23
2017-11-30T15:11:03.043Z,79.73
2017-11-30T15:13:30.430Z,79.87
2017-11-30T15:15:57.817Z,79.62
2017-11-30T15:18:25.294Z,79.79
2017-11-30T15:20:52.699Z,80.19
2017-11-30T15:23:20.078Z,80.15
2017-11-30T15:25:47.469Z,80.46
2017-11-30T15:28:14.914Z,79.65
2017-11-30T15:30:42.378Z,79.42
2017-11-30T15:33:09.828Z,79.24
2017-11-30T15:35:37.298Z,79.48
2017-11-30T15:38:04.696Z,79.22
2017-11-30T15:40:32.089Z,79.11
2017-11-30T15:42:59.475Z,79.43
2017-11-30T15:45:26.876Z,79.15
2017-11-30T15:47:54.254Z,79.31
2017-11-30T15:50:21.648Z,79.06
2017-11-30T15:52:49.074Z,78.47
2017-11-30T15:55:16.530Z,79.04
2017-11-30T15:57:43.987Z,78.91
2017-11-30T16:00:11.383Z,78.54
2017-11-30T16:02:38.797Z,77.83
2017-11-30T16:05:06.186Z,77.47
2017-11-30T16:07:33.575Z,77.14
2017-11-30T16:10:01.063Z,77.11
2017-11-30T16:12:28.451Z,76.28
2017-11-30T16:14:55.871Z,76.62
2017-11-30T16:17:23.323Z,76.20
2017-11-30T16:19:50.722Z,76.37
2017-11-30T16:22:18.110Z,76.22
2017-11-30T16:24:45.508Z,75.93
2017-11-30T16:27:12.973Z,75.90
2017-11-30T16:29:40.398Z,76.01
2017-11-30T16:32:07.798Z,76.24
2017-11-30T16:34:35.182Z,76.83
2017-11-30T16:37:02.585Z,77.57
2017-11-30T16:39:30.094Z,77.48
2017-11-30T16:41:57.494Z,77.05
2017-11-30T16:44:24.890Z,76.94
2017-11-30T16:46:52.414Z,76.49
2017-11-30T16:49:19.798Z,77.37
2017-11-30T16:51:47.197Z,77.17
2017-11-30T16:54:14.599Z,76.79
2017-11-30T16:56:42.001Z,76.90
2017-11-30T16:59:09.470Z,76.94
2017-11-30T17:01:36.942Z,76.73
2017-11-30T17:04:04.384Z,76.46
2017-11-30T17:06:31.786Z,76.48
2017-11-30T17:08:59.176Z,76.17
2017-11-30T17:11:26.607Z,75.87
2017-11-30T17:13:54.103Z,76.01
2017-11-30T17:16:21.553Z,75.92
2017-11-30T17:18:48.948Z,76.55
2017-11-30T17:21:16.330Z,76.84
2017-11-30T17:23:43.724Z,77.39
2017-11-30T17:26:11.182Z,77.38
2017-11-30T17:28:38.645Z,77.26
2017-11-30T17:31:06.091Z,77.29
2017-11-30T17:33:33.478Z,76.76
2017-11-30T17:36:00.870Z,76.46
2017-11-30T17:38:28.254Z,76.18
2017-11-30T17:40:55.639Z,76.25
2017-11-30T17:43:23.063Z,75.80
2017-11-30T17:45:50.453Z,76.11
2017-11-30T17:48:17.878Z,75.88
2017-11-30T17:50:45.330Z,75.58
2017-11-30T17:53:12.718Z,76.30
2017-11-30T17:55:40.126Z,76.36
2017-11-30T17:58:07.606Z,76.18
2017-11-30T18:00:34.999Z,76.54
2017-11-30T18:03:02.414Z,76.87
2017-11-30T18:05:29.862Z,76.98
2017-11-30T18:07:57.335Z,76.49
2017-11-30T18:10:24.718Z,76.70
2017-11-30T18:12:52.115Z,76.51
2017-11-30T18:15:19.496Z,76.18
2017-11-30T18:17:46.915Z,75.87
2017-11-30T18:20:14.290Z,75.87
2017-11-30T18:25:31.984Z,76.88
2017-11-30T18:27:59.482Z,77.32
2017-11-30T18:30:26.842Z,77.42
2017-11-30T18:32:54.231Z,78.09
2017-11-30T18:35:21.626Z,77.64
2017-11-30T18:37:49.022Z,77.59
2017-11-30T18:40:16.446Z,77.37
2017-11-30T18:42:43.890Z,77.37
2017-11-30T18:45:11.286Z,77.38
2017-11-30T18:47:38.690Z,77.29
2017-11-30T18:50:06.077Z,77.65
2017-11-30T18:52:33.471Z,77.68
2017-11-30T18:55:00.860Z,77.93
2017-11-30T18:57:28.242Z,77.84
2017-11-30T18:59:55.630Z,77.86
2017-11-30T19:02:23.017Z,77.46
2017-11-30T19:04:50.414Z,77.23
2017-11-30T19:07:17.802Z,77.28
2017-11-30T19:09:45.202Z,77.44
2017-11-30T19:12:12.586Z,77.55
2017-11-30T19:14:39.984Z,78.03
2017-11-30T19:17:07.367Z,78.53
2017-11-30T19:19:34.821Z,78.22
2017-11-30T19:22:02.206Z,78.28
2017-11-30T19:24:29.598Z,78.86
2017-11-30T19:26:57.083Z,78.78
2017-11-30T19:29:24.473Z,78.57
2017-11-30T19:31:51.866Z,79.23
2017-11-30T19:34:19.255Z,79.14
2017-11-30T19:36:46.727Z,79.43
2017-11-30T19:39:14.111Z,79.37
2017-11-30T19:41:41.532Z,79.33
2017-11-30T19:44:08.917Z,79.87
2017-11-30T19:46:36.306Z,79.87
2017-11-30T19:49:03.800Z,80.04
2017-11-30T19:51:31.269Z,80.39
2017-11-30T19:53:58.706Z,80.76
2017-11-30T19:56:26.166Z,80.84
2017-11-30T19:58:53.626Z,80.56
2017-11-30T20:01:21.019Z,80.87
2017-11-30T20:03:48.437Z,80.26
2017-11-30T20:06:15.886Z,79.71
2017-11-30T20:08:43.346Z,79.20
2017-11-30T20:11:10.746Z,78.74
2017-11-30T20:13:38.124Z,78.78
2017-11-30T20:16:05.644Z,79.14
2017-11-30T20:18:33.014Z,79.24
2017-11-30T20:21:00.426Z,79.22
2017-11-30T20:23:27.823Z,79.17
2017-11-30T20:25:55.233Z,80.48
2017-11-30T20:28:22.627Z,80.67
2017-11-30T20:30:50.046Z,80.47
2017-11-30T20:33:17.441Z,79.86
2017-11-30T20:35:44.855Z,79.98
2017-11-30T20:38:12.282Z,79.60
2017-11-30T20:40:39.692Z,79.80
2017-11-30T20:43:07.094Z,80.38
2017-11-30T20:45:34.593Z,80.47
2017-11-30T20:48:02.074Z,80.23
2017-11-30T20:50:29.495Z,80.72
2017-11-30T20:52:56.942Z,80.55
2017-11-30T20:55:24.331Z,80.60
2017-11-30T20:57:51.732Z,80.44
2017-11-30T21:00:19.135Z,80.57
2017-11-30T21:02:46.571Z,80.82
2017-11-30T21:05:13.960Z,80.45
2017-11-30T21:07:41.398Z,80.09
2017-11-30T21:10:08.782Z,79.62
2017-11-30T21:12:36.188Z,79.14
2017-11-30T21:15:03.570Z,78.67
2017-11-30T21:17:31.002Z,78.43
2017-11-30T21:19:58.398Z,78.74
2017-11-30T21:22:25.819Z,78.41
2017-11-30T21:24:53.287Z,78.16
2017-11-30T21:27:20.758Z,78.36
2017-11-30T21:29:48.158Z,78.90
2017-11-30T21:32:15.554Z,78.93
2017-11-30T21:34:42.961Z,79.20
2017-11-30T21:37:10.358Z,79.84
2017-11-30T21:39:37.738Z,80.23
2017-11-30T21:42:05.146Z,80.29
2017-11-30T21:44:32.540Z,79.75
2017-11-30T21:46:59.922Z,79.72
2017-11-30T21:49:27.313Z,79.95
2017-11-30T21:51:54.703Z,79.79
2017-11-30T21:54:22.118Z,79.43
2017-11-30T21:56:49.514Z,79.03
2017-11-30T21:59:16.910Z,79.14
2017-11-30T22:01:44.309Z,79.20
2017-11-30T22:04:11.746Z,79.49
2017-11-30T22:06:39.174Z,79.63
2017-11-30T22:09:06.576Z,79.53
2017-11-30T22:11:33.964Z,79.59
2017-11-30T22:14:01.373Z,79.76
2017-11-30T22:16:28.760Z,79.47
2017-11-30T22:18:56.178Z,79.23
2017-11-30T22:21:23.568Z,78.89
2017-11-30T22:23:50.969Z,79.04
2017-11-30T22:26:18.445Z,78.56
2017-11-30T22:28:45.923Z,78.31
2017-11-30T22:31:13.374Z,78.55
2017-11-30T22:33:40.754Z,78.36
2017-11-30T22:36:08.166Z,78.02
2017-11-30T22:38:35.618Z,78.09
2017-11-30T22:41:03.080Z,77.53
2017-11-30T22:43:30.531Z,76.95
2017-11-30T22:45:57.990Z,76.56
2017-11-30T22:48:25.386Z,76.48
2017-11-30T22:50:52.783Z,76.46
2017-11-30T22:53:20.237Z,76.40
2017-11-30T22:55:47.617Z,76.05
2017-11-30T22:58:15.066Z,75.71
2017-11-30T23:00:42.463Z,75.89
2017-11-30T23:03:09.858Z,76.32
2017-11-30T23:05:37.266Z,76.49
2017-11-30T23:08:04.666Z,77.10
2017-11-30T23:10:32.126Z,77.59
2017-11-30T23:12:59.466Z,77.69
2017-11-30T23:15:26.862Z,78.08
2017-11-30T23:17:54.358Z,77.99
2017-11-30T23:20:21.758Z,78.00
2017-11-30T23:22:49.151Z,77.88
2017-11-30T23:25:16.627Z,77.45
2017-11-30T23:27:44.078Z,77.26
2017-11-30T23:30:11.478Z,77.15
2017-11-30T23:32:38.877Z,76.93
2017-11-30T23:35:06.266Z,77.05
2017-11-30T23:37:33.653Z,77.07
2017-11-30T23:40:01.069Z,76.97
2017-11-30T23:42:28.450Z,76.97
2017-11-30T23:44:55.848Z,76.91
2017-11-30T23:47:23.234Z,76.96
2017-11-30T23:49:50.690Z,76.83
2017-11-30T23:52:18.142Z,76.56
2017-11-30T23:54:45.534Z,76.29
2017-11-30T23:57:12.959Z,76.58
2017-11-30T23:59:40.361Z,76.36
